Station Historical Data
Daily Summary for July 31, 2017 Units:  Metric    English   Both
« Previous Day
Next Day »
Daily Weekly Monthly Yearly Custom
  High: Low: Average:
Temperature: 30.3 °C 19.4 °C 23.8 °C
Dew Point: 18.3 °C 13 °C 16.3 °C
Humidity: 84% 36% 65%
Wind Speed: 14.8km/h 0km/h 8.7km/h
Wind Gust: 8.2km/h - -
Wind- - SSE
Pressure: 1020.5 hPa 1017.2 hPa -
Precipitation: 0 mm    
Historical Graphs
 
 
Tabular Data for July 31, 2017
Time Temperature Dew Point Pressure Wind Wind Speed Wind Gust Humidity Rainfall Rate (Hourly) Conditions
00:01 21.9 °C 18.1 °C 1017.2 hPa WNW 14.8 km/h   79% 0 mm SCT
00:05 21.9 °C 18.3 °C 1017.5 hPa WNW 14.8 km/h   80% 0 mm SCT
00:10 21.8 °C 18.2 °C 1017.5 hPa WNW 14.8 km/h   80% 0 mm SCT
00:15 21.7 °C 18.1 °C 1017.5 hPa WNW 14.8 km/h   80% 0 mm SCT
00:20 21.6 °C 17.8 °C 1017.5 hPa WNW 14.8 km/h   79% 0 mm SCT
00:25 21.6 °C 17.9 °C 1017.5 hPa WNW 14.8 km/h   80% 0 mm SCT
00:30 21.5 °C 17.9 °C 1017.5 hPa WNW 14.8 km/h   80% 0 mm SCT
00:35 21.4 °C 18.1 °C 1017.5 hPa WNW 14.8 km/h   81% 0 mm SCT
00:40 21.3 °C 17.7 °C 1017.5 hPa WNW 14.8 km/h   80% 0 mm SCT
00:45 21.3 °C 17.9 °C 1017.5 hPa WNW 14.8 km/h   81% 0 mm SCT
00:50 21.2 °C 17.6 °C 1017.5 hPa WNW 14.8 km/h   80% 0 mm SCT
00:55 21.2 °C 17.4 °C 1017.8 hPa WNW 14.8 km/h   79% 0 mm SCT
01:00 21.2 °C 17.6 °C 1017.8 hPa WNW 14.8 km/h   80% 0 mm SCT
01:05 21.2 °C 17.8 °C 1017.5 hPa WNW 14.8 km/h   81% 0 mm SCT
01:10 21.1 °C 17.3 °C 1017.5 hPa WNW 14.8 km/h   79% 0 mm SCT
01:15 21.1 °C 17.3 °C 1017.5 hPa WNW 14.8 km/h   79% 0 mm SCT
01:20 21.1 °C 17.5 °C 1017.5 hPa WNW 14.8 km/h   80% 0 mm CLR
01:26 21 °C 17.6 °C 1017.5 hPa WNW 14.8 km/h   81% 0 mm CLR
01:31 20.9 °C 17.6 °C 1017.5 hPa WNW 14.8 km/h   81% 0 mm CLR
01:36 20.8 °C 17.4 °C 1017.8 hPa WNW 14.8 km/h   81% 0 mm CLR
01:41 20.8 °C 17.4 °C 1017.8 hPa WNW 14.8 km/h   81% 0 mm CLR
01:46 20.7 °C 17.3 °C 1017.5 hPa WNW 14.8 km/h   81% 0 mm CLR
01:51 20.7 °C 17.5 °C 1017.5 hPa WNW 14.8 km/h   82% 0 mm CLR
01:56 20.6 °C 17.4 °C 1017.5 hPa WNW 14.8 km/h   82% 0 mm CLR
02:01 20.6 °C 17.6 °C 1017.5 hPa WNW 14.8 km/h   83% 0 mm CLR
02:06 20.4 °C 17.4 °C 1017.5 hPa WNW 14.8 km/h   83% 0 mm CLR
02:11 20.4 °C 17.6 °C 1017.8 hPa WNW 14.8 km/h   84% 0 mm CLR
02:16 20.2 °C 17.2 °C 1017.5 hPa WNW 14.8 km/h   83% 0 mm CLR
02:22 20.2 °C 17.2 °C 1017.8 hPa WNW 14.8 km/h   83% 0 mm CLR
02:27 20.1 °C 17.1 °C 1017.8 hPa WNW 14.8 km/h   83% 0 mm CLR
02:32 20.1 °C 17.3 °C 1017.8 hPa WNW 14.8 km/h   84% 0 mm CLR
02:37 19.9 °C 16.8 °C 1017.8 hPa WNW 14.8 km/h   82% 0 mm CLR
02:42 19.8 °C 16.7 °C 1017.8 hPa WNW 14.8 km/h   82% 0 mm CLR
02:47 19.4 °C 16.2 °C 1017.8 hPa WNW 14.8 km/h   82% 0 mm CLR
02:52 19.6 °C 16.4 °C 1017.8 hPa WNW 14.8 km/h   82% 0 mm CLR
02:57 19.6 °C 16.4 °C 1017.8 hPa WNW 14.8 km/h   82% 0 mm CLR
03:02 19.6 °C 16.4 °C 1017.8 hPa North 14.8 km/h   82% 0 mm CLR
03:07 19.6 °C 16.4 °C 1017.8 hPa North 14.8 km/h   82% 0 mm CLR
03:12 19.6 °C 16.4 °C 1017.8 hPa North 14.8 km/h   82% 0 mm CLR
03:17 19.6 °C 16.4 °C 1017.8 hPa North 14.8 km/h   82% 0 mm CLR
03:22 19.6 °C 16.4 °C 1017.8 hPa North 14.8 km/h   82% 0 mm CLR
03:27 19.6 °C 16.4 °C 1017.8 hPa North 14.8 km/h   82% 0 mm CLR
03:32 19.6 °C 16.4 °C 1017.8 hPa North 14.8 km/h   82% 0 mm CLR
03:37 19.6 °C 16.4 °C 1017.8 hPa North 14.8 km/h   82% 0 mm CLR
03:42 19.6 °C 16.4 °C 1017.8 hPa North 14.8 km/h   82% 0 mm CLR
03:47 19.6 °C 16.4 °C 1017.8 hPa North 14.8 km/h   82% 0 mm CLR
03:53 19.6 °C 16.4 °C 1017.8 hPa North 14.8 km/h   82% 0 mm CLR
03:58 19.6 °C 16.4 °C 1017.8 hPa North 14.8 km/h   82% 0 mm CLR
04:03 19.6 °C 16.4 °C 1017.8 hPa North 14.8 km/h   82% 0 mm CLR
04:05 19.6 °C 16.4 °C 1018.2 hPa Calm     82% 0 mm CLR
04:10 19.6 °C 16.4 °C 1018.2 hPa Calm     82% 0 mm CLR
04:15 19.6 °C 16.4 °C 1017.8 hPa Calm     82% 0 mm CLR
04:20 19.6 °C 16.4 °C 1017.8 hPa Calm     82% 0 mm FEW
04:25 19.6 °C 16.4 °C 1017.8 hPa Calm     82% 0 mm FEW
04:30 19.6 °C 16.4 °C 1017.8 hPa Calm     82% 0 mm FEW
04:35 19.6 °C 16.4 °C 1017.8 hPa Calm     82% 0 mm FEW
04:38 19.6 °C 16.4 °C 1017.8 hPa North 14.8 km/h   82% 0 mm FEW
04:43 19.6 °C 16.4 °C 1017.8 hPa North 14.8 km/h   82% 0 mm FEW
04:48 19.6 °C 16.4 °C 1017.8 hPa North 14.8 km/h   82% 0 mm FEW
04:53 19.6 °C 16.4 °C 1018.2 hPa North 14.8 km/h   82% 0 mm FEW
04:58 19.6 °C 16.4 °C 1018.2 hPa North 14.8 km/h   82% 0 mm FEW
05:03 19.6 °C 16.4 °C 1018.2 hPa North 14.8 km/h   82% 0 mm FEW
05:08 19.6 °C 16.4 °C 1018.2 hPa North 14.8 km/h   82% 0 mm FEW
05:13 19.6 °C 16.4 °C 1018.2 hPa North 14.8 km/h   82% 0 mm FEW
05:18 19.6 °C 16.4 °C 1018.2 hPa North 14.8 km/h   82% 0 mm FEW
05:23 19.6 °C 16.4 °C 1018.5 hPa North 14.8 km/h   82% 0 mm CLR
05:28 19.6 °C 16.4 °C 1018.5 hPa North 14.8 km/h   82% 0 mm CLR
05:33 19.6 °C 16.4 °C 1018.5 hPa North 14.8 km/h   82% 0 mm CLR
05:38 19.6 °C 16.4 °C 1018.5 hPa North 14.8 km/h   82% 0 mm CLR
05:43 19.6 °C 16.4 °C 1018.5 hPa North 14.8 km/h   82% 0 mm CLR
05:48 19.6 °C 16.4 °C 1018.5 hPa North 14.8 km/h   82% 0 mm CLR
05:53 19.6 °C 16.4 °C 1018.5 hPa North 14.8 km/h   82% 0 mm CLR
05:58 19.6 °C 16.4 °C 1018.8 hPa North 14.8 km/h   82% 0 mm CLR
06:04 19.6 °C 16.4 °C 1018.8 hPa North 14.8 km/h   82% 0 mm CLR
06:09 19.6 °C 16.4 °C 1018.8 hPa North 14.8 km/h   82% 0 mm CLR
06:14 19.6 °C 16.4 °C 1018.8 hPa North 14.8 km/h   82% 0 mm CLR
06:19 19.6 °C 16.4 °C 1018.8 hPa North 14.8 km/h   82% 0 mm CLR
06:24 19.6 °C 16.4 °C 1019.2 hPa North 14.8 km/h   82% 0 mm CLR
06:29 19.6 °C 16.4 °C 1019.2 hPa North 14.8 km/h   82% 0 mm CLR
06:34 19.6 °C 16.4 °C 1019.2 hPa North 14.8 km/h   82% 0 mm CLR
06:39 19.6 °C 16.4 °C 1019.2 hPa North 14.8 km/h   82% 0 mm CLR
06:44 19.6 °C 16.4 °C 1019.2 hPa North 14.8 km/h   82% 0 mm CLR
06:49 19.6 °C 16.4 °C 1019.2 hPa North 14.8 km/h   82% 0 mm CLR
06:54 19.6 °C 16.4 °C 1019.2 hPa North 14.8 km/h   82% 0 mm CLR
06:59 19.6 °C 16.4 °C 1019.5 hPa North 14.8 km/h   82% 0 mm CLR
07:04 19.6 °C 16.4 °C 1019.5 hPa North 14.8 km/h   82% 0 mm CLR
07:09 19.6 °C 16.4 °C 1019.5 hPa North 14.8 km/h   82% 0 mm CLR
07:14 19.6 °C 16.4 °C 1019.5 hPa North 14.8 km/h   82% 0 mm CLR
07:19 19.6 °C 16.4 °C 1019.5 hPa North 14.8 km/h   82% 0 mm CLR
07:24 19.6 °C 16.4 °C 1019.5 hPa North 14.8 km/h   82% 0 mm CLR
07:29 19.6 °C 16.4 °C 1019.5 hPa North 14.8 km/h   82% 0 mm CLR
07:34 19.6 °C 16.4 °C 1019.5 hPa North 14.8 km/h   82% 0 mm CLR
07:39 19.6 °C 16.4 °C 1019.5 hPa North 14.8 km/h   82% 0 mm CLR
07:45 19.6 °C 16.4 °C 1019.5 hPa Calm     82% 0 mm CLR
07:50 19.6 °C 16.4 °C 1019.9 hPa North 14.8 km/h   82% 0 mm CLR
07:55 19.6 °C 16.4 °C 1019.9 hPa Calm     82% 0 mm CLR
08:00 19.6 °C 16.4 °C 1019.9 hPa Calm     82% 0 mm CLR
08:05 19.6 °C 16.4 °C 1019.9 hPa Calm     82% 0 mm CLR
08:10 19.6 °C 16.4 °C 1019.9 hPa North 14.8 km/h   82% 0 mm CLR
08:15 19.6 °C 16.4 °C 1019.9 hPa Calm     82% 0 mm CLR
08:20 19.6 °C 16.4 °C 1020.2 hPa Calm     82% 0 mm FEW
08:25 19.6 °C 16.4 °C 1020.2 hPa Calm     82% 0 mm FEW
08:30 19.6 °C 16.4 °C 1020.2 hPa Calm     82% 0 mm FEW
08:35 19.6 °C 16.4 °C 1020.2 hPa Calm     82% 0 mm FEW
08:40 19.5 °C 16.2 °C 1020.2 hPa Calm     81% 0 mm FEW
08:45 19.7 °C 16.2 °C 1020.2 hPa Calm     80% 0 mm FEW
08:50 20.1 °C 16.3 °C 1020.2 hPa Calm     79% 0 mm FEW
08:55 20.5 °C 16.3 °C 1020.2 hPa Calm     77% 0 mm FEW
09:00 20.8 °C 16.4 °C 1020.2 hPa Calm     76% 0 mm FEW
09:05 21 °C 16.4 °C 1020.2 hPa Calm     75% 0 mm FEW
09:10 21.3 °C 16.5 °C 1020.2 hPa Calm     74% 0 mm FEW
09:15 21.7 °C 15.9 °C 1020.2 hPa WNW 1.9 km/h 1.9 km/h 70% 0 mm FEW
09:20 21.9 °C 16 °C 1020.2 hPa WNW 1.9 km/h   69% 0 mm FEW
09:25 22.3 °C 16.4 °C 1020.2 hPa WNW 1.9 km/h   69% 0 mm FEW
09:30 22.7 °C 16.4 °C 1020.2 hPa NW 1.9 km/h   68% 0 mm FEW
09:35 22.8 °C 16.3 °C 1020.2 hPa WNW 1.9 km/h 1.9 km/h 67% 0 mm FEW
09:40 22.9 °C 15.8 °C 1020.2 hPa WNW 1.9 km/h 1.9 km/h 64% 0 mm FEW
09:45 23.1 °C 16.1 °C 1020.2 hPa WNW 3.7 km/h   65% 0 mm FEW
09:51 23.2 °C 16.5 °C 1020.2 hPa WNW 3.7 km/h   66% 0 mm FEW
09:56 23.4 °C 16.2 °C 1020.2 hPa WNW 3.7 km/h   64% 0 mm FEW
10:01 23.5 °C 16.1 °C 1020.2 hPa WNW 3.7 km/h   63% 0 mm FEW
10:06 23.7 °C 16 °C 1020.2 hPa NW 3.7 km/h   62% 0 mm FEW
10:11 23.9 °C 16.2 °C 1020.5 hPa NW 3.7 km/h   62% 0 mm FEW
10:16 24.1 °C 16.6 °C 1020.5 hPa NNE 3.7 km/h 3.7 km/h 63% 0 mm FEW
10:21 24.3 °C 16 °C 1020.5 hPa WNW 3.7 km/h   60% 0 mm FEW
10:26 24.4 °C 16.2 °C 1020.5 hPa NW 3.7 km/h   60% 0 mm FEW
10:31 24.7 °C 16.4 °C 1020.5 hPa NW 3.7 km/h   60% 0 mm FEW
10:36 24.9 °C 16.7 °C 1020.5 hPa NW 3.7 km/h 3.7 km/h 60% 0 mm FEW
10:41 25.1 °C 16 °C 1020.5 hPa NW 3.7 km/h   57% 0 mm FEW
10:46 25.3 °C 16.4 °C 1020.5 hPa NW 3.7 km/h   58% 0 mm FEW
10:51 25.6 °C 16.7 °C 1020.5 hPa NW 3.7 km/h   58% 0 mm FEW
10:56 25.8 °C 16.4 °C 1020.5 hPa NW 3.7 km/h   56% 0 mm FEW
11:01 25.9 °C 15.6 °C 1020.5 hPa North 3.7 km/h 3.7 km/h 53% 0 mm FEW
11:06 26 °C 15.9 °C 1020.5 hPa West 3.7 km/h   54% 0 mm FEW
11:11 25.9 °C 15.3 °C 1020.5 hPa NW 3.7 km/h   52% 0 mm FEW
11:16 25.9 °C 15.6 °C 1020.5 hPa NW 3.7 km/h   53% 0 mm FEW
11:21 25.9 °C 16.2 °C 1020.5 hPa NW 3.7 km/h   55% 0 mm FEW
11:27 26.1 °C 16 °C 1020.5 hPa WNW 3.7 km/h   54% 0 mm FEW
11:32 26 °C 15.1 °C 1020.5 hPa South 3.7 km/h 3.7 km/h 51% 0 mm FEW
11:37 26 °C 15.4 °C 1020.5 hPa WNW 3.7 km/h 3.7 km/h 52% 0 mm FEW
11:42 25.9 °C 14.7 °C 1020.5 hPa WNW 3.7 km/h 3.7 km/h 50% 0 mm FEW
11:47 25.9 °C 15.3 °C 1020.5 hPa NW 3.7 km/h 3.7 km/h 52% 0 mm FEW
11:52 26.1 °C 14.8 °C 1020.5 hPa NW 3.7 km/h 3.7 km/h 50% 0 mm FEW
11:57 26.4 °C 14.8 °C 1020.5 hPa NW 3.7 km/h 3.7 km/h 49% 0 mm FEW
12:02 26.5 °C 14.6 °C 1020.5 hPa WNW 3.7 km/h   48% 0 mm FEW
12:07 26.5 °C 15.2 °C 1020.5 hPa SW 3.7 km/h   50% 0 mm FEW
12:12 26.6 °C 13.7 °C 1020.5 hPa West 3.7 km/h 3.7 km/h 45% 0 mm FEW
12:17 26.8 °C 14.8 °C 1020.5 hPa NW 3.7 km/h 3.7 km/h 48% 0 mm FEW
12:23 26.9 °C 14.9 °C 1020.5 hPa NW 3.7 km/h   48% 0 mm FEW
12:28 26.9 °C 14.7 °C 1020.5 hPa NNW 3.7 km/h   47% 0 mm FEW
12:33 27.3 °C 14.3 °C 1020.5 hPa West 3.7 km/h 3.7 km/h 45% 0 mm FEW
12:38 27.2 °C 14.6 °C 1020.2 hPa West 5.6 km/h   46% 0 mm FEW
12:43 27.3 °C 14.3 °C 1020.2 hPa East 5.6 km/h 5.6 km/h 45% 0 mm FEW
12:48 27.6 °C 13.5 °C 1020.2 hPa WNW 5.6 km/h 5.6 km/h 42% 0 mm FEW
12:53 27.8 °C 13.7 °C 1020.2 hPa East 5.6 km/h 5.6 km/h 42% 0 mm FEW
12:58 28.1 °C 14.3 °C 1020.2 hPa NW 7.4 km/h 7.4 km/h 43% 0 mm FEW
13:03 28.3 °C 13.8 °C 1020.2 hPa NW 7.4 km/h   41% 0 mm FEW
13:08 28.6 °C 14.8 °C 1019.9 hPa NW 7.4 km/h   43% 0 mm FEW
13:13 29.2 °C 13.8 °C 1019.9 hPa NW 7.4 km/h   39% 0 mm FEW
13:18 29.6 °C 14.1 °C 1019.9 hPa NW 7.4 km/h 7.4 km/h 39% 0 mm FEW
13:23 29.7 °C 16.1 °C 1019.9 hPa WNW 7.4 km/h 7.4 km/h 44% 0 mm FEW
13:28 29.7 °C 13.8 °C 1019.9 hPa NNW 7.4 km/h 7.4 km/h 38% 0 mm FEW
13:33 29.6 °C 13.3 °C 1019.9 hPa WNW 7.4 km/h 7.4 km/h 37% 0 mm FEW
13:38 29.5 °C 15.2 °C 1019.5 hPa NW 7.4 km/h   42% 0 mm FEW
13:43 29.7 °C 13.5 °C 1019.5 hPa West 7.4 km/h   37% 0 mm FEW
13:48 30 °C 13.7 °C 1019.5 hPa North 7.4 km/h 7.4 km/h 37% 0 mm FEW
13:53 30.2 °C 15.5 °C 1019.5 hPa NW 7.4 km/h   41% 0 mm FEW
13:58 30.3 °C 13.6 °C 1019.2 hPa NW 7.4 km/h 7.4 km/h 36% 0 mm FEW
14:04 29.8 °C 13.5 °C 1019.2 hPa ESE 7.4 km/h 7.4 km/h 37% 0 mm FEW
14:09 29.7 °C 13 °C 1019.2 hPa East 7.4 km/h   36% 0 mm FEW
14:10 29.7 °C 13.9 °C 1019.2 hPa ESE 7.4 km/h 7.4 km/h 38% 0 mm FEW
14:14 29.9 °C 14.4 °C 1019.2 hPa ESE 7.4 km/h   39% 0 mm FEW
14:19 30.1 °C 14.6 °C 1019.2 hPa ENE 7.4 km/h 7.4 km/h 39% 0 mm FEW
14:24 29.8 °C 13.1 °C 1018.8 hPa ENE 8.2 km/h 8.2 km/h 36% 0 mm FEW
14:29 29.2 °C 14.6 °C 1018.8 hPa East 8.2 km/h 8.2 km/h 41% 0 mm FEW
14:34 29.1 °C 14.1 °C 1018.8 hPa NW 8.2 km/h 8.2 km/h 40% 0 mm FEW
14:39 29.1 °C 15.3 °C 1018.8 hPa NNE 8.2 km/h 8.2 km/h 43% 0 mm FEW
14:44 29.1 °C 14.4 °C 1018.8 hPa SSW 8.2 km/h 8.2 km/h 41% 0 mm FEW
14:49 28.8 °C 14.2 °C 1018.8 hPa NNW 8.2 km/h 8.2 km/h 41% 0 mm FEW
14:54 28.7 °C 14.6 °C 1018.8 hPa SSE 8.2 km/h   42% 0 mm FEW
14:59 28.8 °C 15 °C 1018.8 hPa NW 8.2 km/h 8.2 km/h 43% 0 mm FEW
15:04 28.9 °C 15.1 °C 1018.5 hPa NW 8.2 km/h   43% 0 mm FEW
15:09 28.9 °C 15.4 °C 1018.5 hPa North 8.2 km/h 8.2 km/h 44% 0 mm FEW
15:14 28.9 °C 15.1 °C 1018.5 hPa NNW 8.2 km/h 8.2 km/h 43% 0 mm FEW
15:19 28.9 °C 16.2 °C 1018.5 hPa WNW 8.2 km/h   46% 0 mm FEW
15:24 29 °C 15.5 °C 1018.5 hPa WNW 8.2 km/h   44% 0 mm FEW
15:29 29 °C 15.2 °C 1018.5 hPa WNW 8.2 km/h   43% 0 mm FEW
15:34 29 °C 14.8 °C 1018.2 hPa North 8.2 km/h   42% 0 mm FEW
15:39 28.9 °C 14.7 °C 1018.5 hPa WSW 8.2 km/h   42% 0 mm FEW
15:45 28.8 °C 14.6 °C 1018.5 hPa NW 8.2 km/h 8.2 km/h 42% 0 mm FEW
15:50 28.7 °C 14.1 °C 1018.5 hPa NNW 8.2 km/h 8.2 km/h 41% 0 mm FEW
15:55 28.7 °C 15.2 °C 1018.2 hPa Calm   1.6 km/h 44% 0 mm FEW
16:00 28.6 °C 14.8 °C 1018.2 hPa Calm   3.2 km/h 43% 0 mm FEW
16:05 28.6 °C 14.4 °C 1018.2 hPa ENE 8.2 km/h 8.2 km/h 42% 0 mm FEW
16:10 28.6 °C 15.2 °C 1018.2 hPa Calm   1.6 km/h 44% 0 mm FEW
16:15 28.6 °C 14.4 °C 1017.8 hPa Calm   3.2 km/h 42% 0 mm FEW
16:20 28.6 °C 14.4 °C 1017.8 hPa Calm   3.2 km/h 42% 0 mm FEW
16:25 28.7 °C 15.9 °C 1017.8 hPa NW 8.2 km/h 8.2 km/h 46% 0 mm FEW
16:30 28.6 °C 14.8 °C 1017.8 hPa NE 8.2 km/h 8.2 km/h 43% 0 mm FEW
16:35 28.6 °C 14.8 °C 1017.8 hPa ENE 8.2 km/h   43% 0 mm FEW
16:40 28.6 °C 15.1 °C 1017.8 hPa NW 8.2 km/h 8.2 km/h 44% 0 mm FEW
16:45 28.6 °C 15.4 °C 1017.8 hPa South 8.2 km/h 8.2 km/h 45% 0 mm FEW
16:50 28.6 °C 15.8 °C 1017.8 hPa NW 8.2 km/h   46% 0 mm FEW
16:55 28.6 °C 15.5 °C 1017.8 hPa WNW 8.2 km/h   45% 0 mm FEW
17:00 28.7 °C 16.2 °C 1017.8 hPa WNW 8.2 km/h   47% 0 mm FEW
17:05 28.7 °C 15.2 °C 1017.8 hPa ENE 8.2 km/h 8.2 km/h 44% 0 mm FEW
17:10 28.7 °C 15.6 °C 1017.8 hPa NW 8.2 km/h 8.2 km/h 45% 0 mm FEW
17:11 28.7 °C 15.9 °C 1017.8 hPa NW 8.2 km/h   46% 0 mm FEW
17:16 28.7 °C 15.6 °C 1017.8 hPa NW 8.2 km/h   45% 0 mm FEW
17:21 29 °C 16.2 °C 1017.8 hPa NW 8.2 km/h   46% 0 mm FEW
17:26 29.2 °C 16.1 °C 1017.8 hPa NNW 8.2 km/h 8.2 km/h 45% 0 mm FEW
17:31 29.2 °C 15.3 °C 1017.8 hPa NW 8.2 km/h   43% 0 mm FEW
17:36 29 °C 15.2 °C 1017.8 hPa NE 8.2 km/h 8.2 km/h 43% 0 mm FEW
17:41 28.9 °C 14.7 °C 1017.5 hPa NNE 8.2 km/h 8.2 km/h 42% 0 mm FEW
17:47 28.9 °C 15.8 °C 1017.8 hPa NNE 8.2 km/h   45% 0 mm FEW
17:52 28.7 °C 15.6 °C 1017.8 hPa ENE 8.2 km/h 8.2 km/h 45% 0 mm FEW
17:57 28.4 °C 15.7 °C 1017.5 hPa ENE 8.2 km/h   46% 0 mm FEW
18:02 28.1 °C 16.3 °C 1017.5 hPa ENE 8.2 km/h   49% 0 mm FEW
18:07 27.8 °C 15.5 °C 1017.8 hPa ENE 8.2 km/h   47% 0 mm FEW
18:12 27.8 °C 16.1 °C 1017.8 hPa ENE 8.2 km/h   49% 0 mm FEW
18:17 27.8 °C 16.7 °C 1017.8 hPa ENE 8.2 km/h   51% 0 mm FEW
18:22 27.7 °C 16.6 °C 1017.8 hPa ENE 8.2 km/h   51% 0 mm SCT
18:27 27.6 °C 16.8 °C 1017.8 hPa ENE 8.2 km/h   52% 0 mm SCT
18:32 27.3 °C 17.2 °C 1017.8 hPa ENE 8.2 km/h   54% 0 mm SCT
18:37 27.1 °C 17 °C 1017.8 hPa ENE 8.2 km/h   54% 0 mm SCT
18:42 27 °C 16.9 °C 1017.8 hPa ENE 8.2 km/h   54% 0 mm SCT
18:47 26.9 °C 16.8 °C 1017.5 hPa ENE 8.2 km/h   54% 0 mm SCT
18:52 26.8 °C 16.4 °C 1017.8 hPa ENE 8.2 km/h   53% 0 mm SCT
18:58 26.9 °C 16.5 °C 1017.8 hPa ENE 8.2 km/h   53% 0 mm SCT
19:03 26.8 °C 17.1 °C 1017.5 hPa ENE 8.2 km/h   55% 0 mm SCT
19:08 26.8 °C 17.3 °C 1017.8 hPa ENE 8.2 km/h   56% 0 mm SCT
19:13 26.7 °C 18.1 °C 1017.5 hPa ENE 8.2 km/h   59% 0 mm SCT
19:18 26.6 °C 17.4 °C 1017.8 hPa ENE 8.2 km/h   57% 0 mm SCT
19:23 26.5 °C 17.6 °C 1017.5 hPa ENE 8.2 km/h   58% 0 mm BKN
19:25 26.4 °C 17.2 °C 1017.5 hPa ENE 8.2 km/h   57% 0 mm BKN
19:30 26.4 °C 17.4 °C 1017.5 hPa ENE 8.2 km/h   58% 0 mm BKN
19:35 26.2 °C 17.3 °C 1017.5 hPa ENE 8.2 km/h   58% 0 mm BKN
19:40 26.1 °C 17.4 °C 1017.8 hPa ENE 8.2 km/h   59% 0 mm BKN
19:45 26.1 °C 17.7 °C 1017.5 hPa ENE 8.2 km/h   60% 0 mm BKN
19:50 26 °C 17.6 °C 1017.5 hPa ENE 8.2 km/h   60% 0 mm BKN
19:56 26 °C 17.6 °C 1017.8 hPa ENE 8.2 km/h   60% 0 mm BKN
20:01 26 °C 17.6 °C 1017.8 hPa ENE 8.2 km/h   60% 0 mm BKN
20:05 25.9 °C 17.6 °C 1017.8 hPa ENE 8.2 km/h   60% 0 mm BKN
20:10 25.9 °C 17.6 °C 1017.8 hPa ENE 8.2 km/h   60% 0 mm BKN
20:15 25.8 °C 17.7 °C 1017.8 hPa ENE 8.2 km/h   61% 0 mm BKN
20:20 25.7 °C 17.6 °C 1017.8 hPa ENE 8.2 km/h   61% 0 mm BKN
20:25 25.5 °C 17.7 °C 1017.8 hPa ENE 8.2 km/h   62% 0 mm BKN
20:30 25.4 °C 17.8 °C 1017.8 hPa ENE 8.2 km/h   63% 0 mm BKN
20:36 25.2 °C 17.7 °C 1017.8 hPa ENE 8.2 km/h   63% 0 mm BKN
20:41 25.1 °C 17.8 °C 1017.8 hPa ENE 8.2 km/h   64% 0 mm BKN
20:46 24.9 °C 17.4 °C 1017.8 hPa ENE 8.2 km/h   63% 0 mm BKN
20:51 24.8 °C 17.3 °C 1017.8 hPa ENE 8.2 km/h   63% 0 mm BKN
20:56 24.7 °C 17.7 °C 1017.8 hPa ENE 8.2 km/h   65% 0 mm BKN
21:01 24.5 °C 17.5 °C 1017.8 hPa ENE 8.2 km/h   65% 0 mm BKN
21:06 24.3 °C 17.3 °C 1018.2 hPa ENE 8.2 km/h   65% 0 mm BKN
21:11 24.2 °C 17.4 °C 1018.2 hPa ENE 8.2 km/h   66% 0 mm BKN
21:16 23.9 °C 17.4 °C 1018.2 hPa ENE 8.2 km/h   67% 0 mm BKN
21:21 23.8 °C 17.5 °C 1018.2 hPa ENE 8.2 km/h   68% 0 mm SCT
21:27 23.7 °C 17.4 °C 1018.2 hPa ENE 8.2 km/h   68% 0 mm SCT
21:32 23.6 °C 17.6 °C 1018.2 hPa ENE 8.2 km/h   69% 0 mm SCT
21:37 23.4 °C 17.4 °C 1018.2 hPa ENE 8.2 km/h   69% 0 mm SCT
21:42 23.3 °C 17.1 °C 1018.2 hPa ENE 8.2 km/h   68% 0 mm SCT
21:47 23.2 °C 17.2 °C 1018.2 hPa ENE 8.2 km/h   69% 0 mm SCT
21:52 23.1 °C 17.1 °C 1018.2 hPa ENE 8.2 km/h   69% 0 mm SCT
21:57 22.9 °C 16.9 °C 1018.2 hPa ENE 8.2 km/h   69% 0 mm SCT
22:02 22.9 °C 17.1 °C 1018.5 hPa ENE 8.2 km/h   70% 0 mm SCT
22:07 22.8 °C 16.8 °C 1018.5 hPa ENE 8.2 km/h   69% 0 mm SCT
22:12 22.7 °C 17.2 °C 1018.5 hPa ENE 8.2 km/h   71% 0 mm SCT
22:17 22.6 °C 17.3 °C 1018.5 hPa ENE 8.2 km/h   72% 0 mm SCT
22:22 22.6 °C 17.4 °C 1018.5 hPa ENE 8.2 km/h   73% 0 mm SCT
22:27 22.4 °C 17.4 °C 1018.5 hPa ENE 8.2 km/h   73% 0 mm SCT
22:32 22.3 °C 16.8 °C 1018.5 hPa ENE 8.2 km/h   71% 0 mm SCT
22:38 22.2 °C 17.1 °C 1018.5 hPa ENE 8.2 km/h   73% 0 mm SCT
22:43 22.1 °C 17.3 °C 1018.5 hPa ENE 8.2 km/h   74% 0 mm SCT
22:48 22.1 °C 17.2 °C 1018.8 hPa ENE 8.2 km/h   74% 0 mm SCT
22:53 21.9 °C 17.1 °C 1018.5 hPa ENE 8.2 km/h   74% 0 mm SCT
22:58 21.9 °C 17.3 °C 1018.5 hPa ENE 8.2 km/h   75% 0 mm SCT
22:59 21.9 °C 17.3 °C 1018.5 hPa ENE 8.2 km/h   75% 0 mm SCT
23:04 21.8 °C 17.2 °C 1018.5 hPa ENE 8.2 km/h   75% 0 mm SCT
23:05 21.8 °C 16.9 °C 1018.5 hPa ENE 8.2 km/h   74% 0 mm SCT
23:10 21.7 °C 17.3 °C 1018.5 hPa ENE 8.2 km/h   76% 0 mm SCT
23:15 21.6 °C 17.2 °C 1018.5 hPa ENE 8.2 km/h   76% 0 mm SCT
23:20 21.6 °C 17.2 °C 1018.5 hPa ENE 8.2 km/h   76% 0 mm FEW
23:25 21.5 °C 17.3 °C 1018.5 hPa ENE 8.2 km/h   77% 0 mm FEW
23:30 21.4 °C 17.2 °C 1018.5 hPa ENE 8.2 km/h   77% 0 mm FEW
23:35 21.3 °C 17.1 °C 1018.5 hPa ENE 8.2 km/h   77% 0 mm FEW
23:41 21.2 °C 16.8 °C 1018.5 hPa ENE 8.2 km/h   76% 0 mm FEW
23:46 21.2 °C 17 °C 1018.5 hPa ENE 8.2 km/h   77% 0 mm FEW
23:51 21.1 °C 16.7 °C 1018.5 hPa ENE 8.2 km/h   76% 0 mm FEW
23:56 21.1 °C 16.9 °C 1018.5 hPa ENE 8.2 km/h   77% 0 mm FEW
Piedmont Bend
Compliments of Weather Underground - 2 mb